sensor_id;sensor_type;location;lat;lon;timestamp;P1;durP1;ratioP1;P2;durP2;ratioP2
18162;SDS011;9206;50.994;4.538;2023-04-15T00:04:45;6.27;;;5.03;;
18162;SDS011;9206;50.994;4.538;2023-04-15T00:07:34;7.53;;;5.10;;
18162;SDS011;9206;50.994;4.538;2023-04-15T00:10:25;5.83;;;5.23;;
18162;SDS011;9206;50.994;4.538;2023-04-15T00:13:18;6.53;;;4.70;;
18162;SDS011;9206;50.994;4.538;2023-04-15T00:16:13;4.53;;;4.10;;
18162;SDS011;9206;50.994;4.538;2023-04-15T00:19:00;5.50;;;5.03;;
18162;SDS011;9206;50.994;4.538;2023-04-15T00:21:48;5.03;;;4.63;;
18162;SDS011;9206;50.994;4.538;2023-04-15T00:24:35;6.97;;;4.43;;
18162;SDS011;9206;50.994;4.538;2023-04-15T00:27:31;4.53;;;4.10;;
18162;SDS011;9206;50.994;4.538;2023-04-15T00:30:25;7.60;;;4.97;;
18162;SDS011;9206;50.994;4.538;2023-04-15T00:33:18;5.40;;;4.47;;
18162;SDS011;9206;50.994;4.538;2023-04-15T00:36:08;6.00;;;4.47;;
18162;SDS011;9206;50.994;4.538;2023-04-15T00:38:57;5.57;;;5.00;;
18162;SDS011;9206;50.994;4.538;2023-04-15T00:41:50;4.70;;;4.30;;
18162;SDS011;9206;50.994;4.538;2023-04-15T00:44:46;6.77;;;5.20;;
18162;SDS011;9206;50.994;4.538;2023-04-15T00:47:36;5.67;;;5.17;;
18162;SDS011;9206;50.994;4.538;2023-04-15T00:50:32;5.47;;;4.90;;
18162;SDS011;9206;50.994;4.538;2023-04-15T00:59:00;6.20;;;4.77;;
18162;SDS011;9206;50.994;4.538;2023-04-15T01:04:45;4.83;;;4.30;;
18162;SDS011;9206;50.994;4.538;2023-04-15T01:07:38;5.07;;;4.20;;
18162;SDS011;9206;50.994;4.538;2023-04-15T01:10:26;4.70;;;4.40;;
18162;SDS011;9206;50.994;4.538;2023-04-15T01:13:13;10.57;;;5.23;;
18162;SDS011;9206;50.994;4.538;2023-04-15T01:16:00;6.90;;;4.50;;
18162;SDS011;9206;50.994;4.538;2023-04-15T01:18:55;5.37;;;4.87;;
18162;SDS011;9206;50.994;4.538;2023-04-15T01:21:48;4.80;;;4.37;;
18162;SDS011;9206;50.994;4.538;2023-04-15T01:27:28;5.00;;;4.43;;
18162;SDS011;9206;50.994;4.538;2023-04-15T01:30:15;4.80;;;4.40;;
18162;SDS011;9206;50.994;4.538;2023-04-15T01:33:04;5.63;;;4.70;;
18162;SDS011;9206;50.994;4.538;2023-04-15T01:35:51;7.97;;;4.83;;
18162;SDS011;9206;50.994;4.538;2023-04-15T01:38:39;6.97;;;4.60;;
18162;SDS011;9206;50.994;4.538;2023-04-15T01:41:28;5.27;;;4.77;;
18162;SDS011;9206;50.994;4.538;2023-04-15T01:44:18;4.57;;;4.13;;
18162;SDS011;9206;50.994;4.538;2023-04-15T01:47:12;4.83;;;4.43;;
18162;SDS011;9206;50.994;4.538;2023-04-15T01:49:59;6.53;;;4.87;;
18162;SDS011;9206;50.994;4.538;2023-04-15T01:52:51;7.00;;;4.97;;
18162;SDS011;9206;50.994;4.538;2023-04-15T01:55:41;6.07;;;4.83;;
18162;SDS011;9206;50.994;4.538;2023-04-15T02:01:27;5.47;;;4.70;;
18162;SDS011;9206;50.994;4.538;2023-04-15T02:04:14;7.80;;;4.30;;
18162;SDS011;9206;50.994;4.538;2023-04-15T02:07:02;6.83;;;4.87;;
18162;SDS011;9206;50.994;4.538;2023-04-15T02:09:50;5.87;;;4.43;;
18162;SDS011;9206;50.994;4.538;2023-04-15T02:12:39;5.47;;;4.40;;
18162;SDS011;9206;50.994;4.538;2023-04-15T02:15:27;5.27;;;4.40;;
18162;SDS011;9206;50.994;4.538;2023-04-15T02:18:26;5.10;;;4.50;;
18162;SDS011;9206;50.994;4.538;2023-04-15T02:21:16;5.20;;;4.57;;
18162;SDS011;9206;50.994;4.538;2023-04-15T02:24:05;5.30;;;4.37;;
18162;SDS011;9206;50.994;4.538;2023-04-15T02:26:52;4.60;;;4.20;;
18162;SDS011;9206;50.994;4.538;2023-04-15T02:29:42;5.03;;;4.60;;
18162;SDS011;9206;50.994;4.538;2023-04-15T02:32:36;6.73;;;4.30;;
18162;SDS011;9206;50.994;4.538;2023-04-15T02:38:35;4.50;;;3.90;;
18162;SDS011;9206;50.994;4.538;2023-04-15T02:41:26;3.90;;;3.60;;
18162;SDS011;9206;50.994;4.538;2023-04-15T02:44:21;4.77;;;4.40;;
18162;SDS011;9206;50.994;4.538;2023-04-15T02:47:09;7.23;;;3.67;;
18162;SDS011;9206;50.994;4.538;2023-04-15T02:50:01;4.37;;;3.97;;
18162;SDS011;9206;50.994;4.538;2023-04-15T02:52:53;4.93;;;4.23;;
18162;SDS011;9206;50.994;4.538;2023-04-15T02:58:31;4.83;;;3.97;;
18162;SDS011;9206;50.994;4.538;2023-04-15T03:01:19;4.93;;;4.07;;
18162;SDS011;9206;50.994;4.538;2023-04-15T03:04:06;7.73;;;4.10;;
18162;SDS011;9206;50.994;4.538;2023-04-15T03:06:55;6.27;;;4.00;;
18162;SDS011;9206;50.994;4.538;2023-04-15T03:09:47;4.73;;;3.90;;
18162;SDS011;9206;50.994;4.538;2023-04-15T03:12:51;5.10;;;4.50;;
18162;SDS011;9206;50.994;4.538;2023-04-15T03:15:40;4.60;;;4.20;;
18162;SDS011;9206;50.994;4.538;2023-04-15T03:18:29;6.90;;;4.30;;
18162;SDS011;9206;50.994;4.538;2023-04-15T03:21:18;5.00;;;4.20;;
18162;SDS011;9206;50.994;4.538;2023-04-15T03:24:05;6.40;;;4.47;;
18162;SDS011;9206;50.994;4.538;2023-04-15T03:26:56;4.80;;;4.40;;
18162;SDS011;9206;50.994;4.538;2023-04-15T03:29:49;5.17;;;4.77;;
18162;SDS011;9206;50.994;4.538;2023-04-15T03:35:33;5.87;;;4.57;;
18162;SDS011;9206;50.994;4.538;2023-04-15T03:38:23;10.23;;;4.90;;
18162;SDS011;9206;50.994;4.538;2023-04-15T03:41:11;6.93;;;4.53;;
18162;SDS011;9206;50.994;4.538;2023-04-15T03:44:06;7.33;;;4.40;;
18162;SDS011;9206;50.994;4.538;2023-04-15T03:46:54;4.87;;;4.47;;
18162;SDS011;9206;50.994;4.538;2023-04-15T03:49:48;5.23;;;4.83;;
18162;SDS011;9206;50.994;4.538;2023-04-15T03:53:04;7.07;;;5.63;;
18162;SDS011;9206;50.994;4.538;2023-04-15T03:58:56;7.77;;;5.20;;
18162;SDS011;9206;50.994;4.538;2023-04-15T04:01:47;5.60;;;5.10;;
18162;SDS011;9206;50.994;4.538;2023-04-15T04:04:38;7.40;;;5.33;;
18162;SDS011;9206;50.994;4.538;2023-04-15T04:07:28;5.63;;;5.20;;
18162;SDS011;9206;50.994;4.538;2023-04-15T04:10:15;5.87;;;5.30;;
18162;SDS011;9206;50.994;4.538;2023-04-15T04:13:09;6.10;;;5.50;;
18162;SDS011;9206;50.994;4.538;2023-04-15T04:18:49;9.90;;;5.37;;
18162;SDS011;9206;50.994;4.538;2023-04-15T04:21:36;7.77;;;5.83;;
18162;SDS011;9206;50.994;4.538;2023-04-15T04:24:36;6.20;;;5.70;;
18162;SDS011;9206;50.994;4.538;2023-04-15T04:27:24;5.60;;;5.20;;
18162;SDS011;9206;50.994;4.538;2023-04-15T04:30:17;6.33;;;5.80;;
18162;SDS011;9206;50.994;4.538;2023-04-15T04:33:07;10.60;;;5.30;;
18162;SDS011;9206;50.994;4.538;2023-04-15T04:35:56;6.10;;;5.50;;
18162;SDS011;9206;50.994;4.538;2023-04-15T04:38:49;6.33;;;5.70;;
18162;SDS011;9206;50.994;4.538;2023-04-15T04:41:39;7.03;;;6.13;;
18162;SDS011;9206;50.994;4.538;2023-04-15T04:44:29;5.83;;;5.30;;
18162;SDS011;9206;50.994;4.538;2023-04-15T04:47:23;6.77;;;5.47;;
18162;SDS011;9206;50.994;4.538;2023-04-15T04:50:16;9.23;;;5.57;;
18162;SDS011;9206;50.994;4.538;2023-04-15T04:53:11;5.77;;;5.27;;
18162;SDS011;9206;50.994;4.538;2023-04-15T04:56:00;5.93;;;5.37;;
18162;SDS011;9206;50.994;4.538;2023-04-15T04:58:53;5.80;;;5.30;;
18162;SDS011;9206;50.994;4.538;2023-04-15T05:01:46;6.60;;;6.10;;
18162;SDS011;9206;50.994;4.538;2023-04-15T05:04:44;8.47;;;5.93;;
18162;SDS011;9206;50.994;4.538;2023-04-15T05:07:32;7.77;;;5.73;;
18162;SDS011;9206;50.994;4.538;2023-04-15T05:10:22;7.60;;;5.87;;
18162;SDS011;9206;50.994;4.538;2023-04-15T05:13:09;5.73;;;5.27;;
18162;SDS011;9206;50.994;4.538;2023-04-15T05:16:02;5.97;;;5.43;;
18162;SDS011;9206;50.994;4.538;2023-04-15T05:18:53;6.80;;;6.20;;
18162;SDS011;9206;50.994;4.538;2023-04-15T05:21:47;6.30;;;5.63;;
18162;SDS011;9206;50.994;4.538;2023-04-15T05:24:37;7.10;;;5.50;;
18162;SDS011;9206;50.994;4.538;2023-04-15T05:27:27;7.87;;;5.57;;
18162;SDS011;9206;50.994;4.538;2023-04-15T05:30:15;6.43;;;5.77;;
18162;SDS011;9206;50.994;4.538;2023-04-15T05:35:58;5.97;;;5.47;;
18162;SDS011;9206;50.994;4.538;2023-04-15T05:41:39;6.07;;;5.67;;
18162;SDS011;9206;50.994;4.538;2023-04-15T05:44:33;6.40;;;5.90;;
18162;SDS011;9206;50.994;4.538;2023-04-15T05:47:22;6.23;;;5.63;;
18162;SDS011;9206;50.994;4.538;2023-04-15T05:50:10;6.70;;;5.53;;
18162;SDS011;9206;50.994;4.538;2023-04-15T05:53:03;6.33;;;5.27;;
18162;SDS011;9206;50.994;4.538;2023-04-15T05:55:51;11.07;;;5.90;;
18162;SDS011;9206;50.994;4.538;2023-04-15T05:58:42;10.70;;;5.97;;
18162;SDS011;9206;50.994;4.538;2023-04-15T06:01:37;5.63;;;5.07;;
18162;SDS011;9206;50.994;4.538;2023-04-15T06:04:30;12.10;;;6.80;;
18162;SDS011;9206;50.994;4.538;2023-04-15T06:07:22;9.43;;;6.00;;
18162;SDS011;9206;50.994;4.538;2023-04-15T06:10:12;7.17;;;5.37;;
18162;SDS011;9206;50.994;4.538;2023-04-15T06:13:00;7.23;;;6.00;;
18162;SDS011;9206;50.994;4.538;2023-04-15T06:15:51;6.93;;;5.50;;
18162;SDS011;9206;50.994;4.538;2023-04-15T06:18:46;7.70;;;5.00;;
18162;SDS011;9206;50.994;4.538;2023-04-15T06:21:34;11.23;;;5.50;;
18162;SDS011;9206;50.994;4.538;2023-04-15T06:24:28;8.93;;;5.13;;
18162;SDS011;9206;50.994;4.538;2023-04-15T06:27:32;6.30;;;5.37;;
18162;SDS011;9206;50.994;4.538;2023-04-15T06:30:19;7.77;;;5.63;;
18162;SDS011;9206;50.994;4.538;2023-04-15T06:33:07;6.73;;;6.13;;
18162;SDS011;9206;50.994;4.538;2023-04-15T06:38:52;7.23;;;5.83;;
18162;SDS011;9206;50.994;4.538;2023-04-15T06:44:42;7.43;;;5.50;;
18162;SDS011;9206;50.994;4.538;2023-04-15T06:50:26;8.63;;;6.13;;
18162;SDS011;9206;50.994;4.538;2023-04-15T06:53:16;6.13;;;5.63;;
18162;SDS011;9206;50.994;4.538;2023-04-15T06:56:06;7.17;;;6.57;;
18162;SDS011;9206;50.994;4.538;2023-04-15T06:58:54;10.53;;;7.43;;
18162;SDS011;9206;50.994;4.538;2023-04-15T07:01:44;7.60;;;6.83;;
18162;SDS011;9206;50.994;4.538;2023-04-15T07:07:36;7.87;;;7.07;;
18162;SDS011;9206;50.994;4.538;2023-04-15T07:10:25;11.83;;;8.13;;
18162;SDS011;9206;50.994;4.538;2023-04-15T07:13:19;12.43;;;7.43;;
18162;SDS011;9206;50.994;4.538;2023-04-15T07:16:09;8.97;;;8.13;;
18162;SDS011;9206;50.994;4.538;2023-04-15T07:19:06;9.43;;;7.77;;
18162;SDS011;9206;50.994;4.538;2023-04-15T07:21:59;11.77;;;8.60;;
18162;SDS011;9206;50.994;4.538;2023-04-15T07:24:56;10.80;;;8.77;;
18162;SDS011;9206;50.994;4.538;2023-04-15T07:27:47;14.30;;;8.30;;
18162;SDS011;9206;50.994;4.538;2023-04-15T07:30:35;10.30;;;8.77;;
18162;SDS011;9206;50.994;4.538;2023-04-15T07:33:25;9.97;;;8.80;;
18162;SDS011;9206;50.994;4.538;2023-04-15T07:36:16;13.00;;;8.63;;
18162;SDS011;9206;50.994;4.538;2023-04-15T07:41:54;10.60;;;8.70;;
18162;SDS011;9206;50.994;4.538;2023-04-15T07:44:50;14.10;;;9.00;;
18162;SDS011;9206;50.994;4.538;2023-04-15T07:47:43;10.38;;;8.27;;
18162;SDS011;9206;50.994;4.538;2023-04-15T07:50:37;8.18;;;7.47;;
18162;SDS011;9206;50.994;4.538;2023-04-15T07:53:30;11.43;;;7.97;;
18162;SDS011;9206;50.994;4.538;2023-04-15T07:56:19;9.77;;;8.88;;
18162;SDS011;9206;50.994;4.538;2023-04-15T08:02:27;8.43;;;7.00;;
18162;SDS011;9206;50.994;4.538;2023-04-15T08:05:20;8.82;;;7.38;;
18162;SDS011;9206;50.994;4.538;2023-04-15T08:08:09;7.80;;;7.10;;
18162;SDS011;9206;50.994;4.538;2023-04-15T08:10:57;7.07;;;6.47;;
18162;SDS011;9206;50.994;4.538;2023-04-15T08:13:47;6.30;;;5.70;;
18162;SDS011;9206;50.994;4.538;2023-04-15T08:16:38;5.55;;;5.10;;
18162;SDS011;9206;50.994;4.538;2023-04-15T08:19:28;6.43;;;5.13;;
18162;SDS011;9206;50.994;4.538;2023-04-15T08:25:17;5.65;;;5.15;;
18162;SDS011;9206;50.994;4.538;2023-04-15T08:28:11;5.07;;;4.57;;
18162;SDS011;9206;50.994;4.538;2023-04-15T08:31:01;5.72;;;5.15;;
18162;SDS011;9206;50.994;4.538;2023-04-15T08:33:50;5.65;;;5.00;;
18162;SDS011;9206;50.994;4.538;2023-04-15T08:36:41;5.88;;;5.38;;
18162;SDS011;9206;50.994;4.538;2023-04-15T08:39:30;5.78;;;5.30;;
18162;SDS011;9206;50.994;4.538;2023-04-15T08:42:18;5.78;;;5.35;;
18162;SDS011;9206;50.994;4.538;2023-04-15T08:45:19;6.10;;;5.63;;
18162;SDS011;9206;50.994;4.538;2023-04-15T08:48:11;6.22;;;5.70;;
18162;SDS011;9206;50.994;4.538;2023-04-15T08:51:02;6.72;;;6.07;;
18162;SDS011;9206;50.994;4.538;2023-04-15T08:53:51;6.35;;;5.90;;
18162;SDS011;9206;50.994;4.538;2023-04-15T08:56:39;5.43;;;5.13;;
18162;SDS011;9206;50.994;4.538;2023-04-15T09:02:18;5.47;;;5.00;;
18162;SDS011;9206;50.994;4.538;2023-04-15T09:05:08;5.75;;;5.35;;
18162;SDS011;9206;50.994;4.538;2023-04-15T09:07:58;5.28;;;4.88;;
18162;SDS011;9206;50.994;4.538;2023-04-15T09:10:48;5.38;;;4.97;;
18162;SDS011;9206;50.994;4.538;2023-04-15T09:13:35;7.13;;;5.25;;
18162;SDS011;9206;50.994;4.538;2023-04-15T09:16:23;5.75;;;5.32;;
18162;SDS011;9206;50.994;4.538;2023-04-15T09:19:19;5.55;;;5.18;;
18162;SDS011;9206;50.994;4.538;2023-04-15T09:22:09;5.72;;;5.15;;
18162;SDS011;9206;50.994;4.538;2023-04-15T09:24:58;5.03;;;4.63;;
18162;SDS011;9206;50.994;4.538;2023-04-15T09:27:48;5.57;;;4.97;;
18162;SDS011;9206;50.994;4.538;2023-04-15T09:30:44;5.72;;;5.22;;
18162;SDS011;9206;50.994;4.538;2023-04-15T09:33:53;6.22;;;5.72;;
18162;SDS011;9206;50.994;4.538;2023-04-15T09:36:57;4.95;;;4.65;;
18162;SDS011;9206;50.994;4.538;2023-04-15T09:39:47;5.60;;;5.10;;
18162;SDS011;9206;50.994;4.538;2023-04-15T09:42:36;5.38;;;4.97;;
18162;SDS011;9206;50.994;4.538;2023-04-15T09:45:46;4.50;;;4.20;;
18162;SDS011;9206;50.994;4.538;2023-04-15T09:48:34;5.03;;;4.72;;
18162;SDS011;9206;50.994;4.538;2023-04-15T09:51:31;5.43;;;4.60;;
18162;SDS011;9206;50.994;4.538;2023-04-15T09:54:23;4.68;;;4.38;;
18162;SDS011;9206;50.994;4.538;2023-04-15T09:57:11;4.57;;;4.38;;
18162;SDS011;9206;50.994;4.538;2023-04-15T10:00:02;3.63;;;3.30;;
18162;SDS011;9206;50.994;4.538;2023-04-15T10:02:52;3.80;;;3.50;;
18162;SDS011;9206;50.994;4.538;2023-04-15T10:08:31;3.03;;;2.83;;
18162;SDS011;9206;50.994;4.538;2023-04-15T10:11:20;4.60;;;3.20;;
18162;SDS011;9206;50.994;4.538;2023-04-15T10:14:08;4.22;;;3.90;;
18162;SDS011;9206;50.994;4.538;2023-04-15T10:17:00;3.92;;;3.60;;
18162;SDS011;9206;50.994;4.538;2023-04-15T10:19:53;3.22;;;3.03;;
18162;SDS011;9206;50.994;4.538;2023-04-15T10:22:43;2.80;;;2.60;;
18162;SDS011;9206;50.994;4.538;2023-04-15T10:25:38;3.33;;;2.67;;
18162;SDS011;9206;50.994;4.538;2023-04-15T10:28:29;2.97;;;2.78;;
18162;SDS011;9206;50.994;4.538;2023-04-15T10:31:18;3.30;;;3.10;;
18162;SDS011;9206;50.994;4.538;2023-04-15T10:34:12;3.50;;;3.28;;
18162;SDS011;9206;50.994;4.538;2023-04-15T10:37:08;4.07;;;3.28;;
18162;SDS011;9206;50.994;4.538;2023-04-15T10:43:15;3.20;;;3.00;;
18162;SDS011;9206;50.994;4.538;2023-04-15T10:46:13;3.20;;;3.00;;
18162;SDS011;9206;50.994;4.538;2023-04-15T10:49:07;3.53;;;3.33;;
18162;SDS011;9206;50.994;4.538;2023-04-15T10:51:59;3.40;;;3.20;;
18162;SDS011;9206;50.994;4.538;2023-04-15T10:54:56;3.50;;;3.20;;
18162;SDS011;9206;50.994;4.538;2023-04-15T10:58:03;4.18;;;3.50;;
18162;SDS011;9206;50.994;4.538;2023-04-15T11:00:52;2.72;;;2.50;;
18162;SDS011;9206;50.994;4.538;2023-04-15T11:03:48;3.33;;;3.03;;
18162;SDS011;9206;50.994;4.538;2023-04-15T11:06:42;3.05;;;2.80;;
18162;SDS011;9206;50.994;4.538;2023-04-15T11:09:33;3.17;;;2.92;;
18162;SDS011;9206;50.994;4.538;2023-04-15T11:12:31;2.53;;;2.40;;
18162;SDS011;9206;50.994;4.538;2023-04-15T11:15:26;3.03;;;2.83;;
18162;SDS011;9206;50.994;4.538;2023-04-15T11:18:24;2.65;;;2.47;;
18162;SDS011;9206;50.994;4.538;2023-04-15T11:21:18;3.10;;;2.90;;
18162;SDS011;9206;50.994;4.538;2023-04-15T11:24:11;3.38;;;3.10;;
18162;SDS011;9206;50.994;4.538;2023-04-15T11:30:18;2.70;;;2.50;;
18162;SDS011;9206;50.994;4.538;2023-04-15T11:33:07;2.88;;;2.67;;
18162;SDS011;9206;50.994;4.538;2023-04-15T11:38:51;2.50;;;2.40;;
18162;SDS011;9206;50.994;4.538;2023-04-15T11:41:40;2.72;;;2.53;;
18162;SDS011;9206;50.994;4.538;2023-04-15T11:44:30;2.20;;;2.10;;
18162;SDS011;9206;50.994;4.538;2023-04-15T11:47:25;2.40;;;2.20;;
18162;SDS011;9206;50.994;4.538;2023-04-15T11:50:15;2.70;;;2.50;;
18162;SDS011;9206;50.994;4.538;2023-04-15T11:53:05;2.65;;;2.45;;
18162;SDS011;9206;50.994;4.538;2023-04-15T11:56:00;3.30;;;2.00;;
18162;SDS011;9206;50.994;4.538;2023-04-15T11:58:47;1.55;;;1.52;;
18162;SDS011;9206;50.994;4.538;2023-04-15T12:01:43;1.52;;;1.42;;
18162;SDS011;9206;50.994;4.538;2023-04-15T12:04:39;2.55;;;2.20;;
18162;SDS011;9206;50.994;4.538;2023-04-15T12:10:43;2.40;;;2.30;;
18162;SDS011;9206;50.994;4.538;2023-04-15T12:13:32;2.05;;;1.95;;
18162;SDS011;9206;50.994;4.538;2023-04-15T12:16:22;2.25;;;2.15;;
18162;SDS011;9206;50.994;4.538;2023-04-15T12:19:11;2.33;;;2.22;;
18162;SDS011;9206;50.994;4.538;2023-04-15T12:22:07;2.70;;;2.50;;
18162;SDS011;9206;50.994;4.538;2023-04-15T12:24:59;1.83;;;1.73;;
18162;SDS011;9206;50.994;4.538;2023-04-15T12:27:50;2.00;;;1.80;;
18162;SDS011;9206;50.994;4.538;2023-04-15T12:30:47;2.50;;;2.20;;
18162;SDS011;9206;50.994;4.538;2023-04-15T12:33:41;1.85;;;1.75;;
18162;SDS011;9206;50.994;4.538;2023-04-15T12:36:32;1.73;;;1.60;;
18162;SDS011;9206;50.994;4.538;2023-04-15T12:39:25;1.63;;;1.60;;
18162;SDS011;9206;50.994;4.538;2023-04-15T12:42:20;2.80;;;1.85;;
18162;SDS011;9206;50.994;4.538;2023-04-15T12:45:11;2.20;;;2.10;;
18162;SDS011;9206;50.994;4.538;2023-04-15T12:48:04;2.53;;;2.33;;
18162;SDS011;9206;50.994;4.538;2023-04-15T12:50:53;2.25;;;2.15;;
18162;SDS011;9206;50.994;4.538;2023-04-15T12:53:46;2.38;;;2.10;;
18162;SDS011;9206;50.994;4.538;2023-04-15T12:56:38;2.60;;;2.40;;
18162;SDS011;9206;50.994;4.538;2023-04-15T12:59:33;2.10;;;2.00;;
18162;SDS011;9206;50.994;4.538;2023-04-15T13:02:26;2.50;;;2.40;;
18162;SDS011;9206;50.994;4.538;2023-04-15T13:05:19;2.85;;;2.13;;
18162;SDS011;9206;50.994;4.538;2023-04-15T13:11:04;2.10;;;2.00;;
18162;SDS011;9206;50.994;4.538;2023-04-15T13:13:53;2.28;;;2.17;;
18162;SDS011;9206;50.994;4.538;2023-04-15T13:16:48;3.80;;;2.42;;
18162;SDS011;9206;50.994;4.538;2023-04-15T13:19:35;3.53;;;2.25;;
18162;SDS011;9206;50.994;4.538;2023-04-15T13:22:28;2.65;;;2.45;;
18162;SDS011;9206;50.994;4.538;2023-04-15T13:25:19;6.20;;;1.83;;
18162;SDS011;9206;50.994;4.538;2023-04-15T13:28:07;3.42;;;2.15;;
18162;SDS011;9206;50.994;4.538;2023-04-15T13:30:58;6.47;;;2.53;;
18162;SDS011;9206;50.994;4.538;2023-04-15T13:33:46;2.40;;;2.10;;
18162;SDS011;9206;50.994;4.538;2023-04-15T13:36:33;2.10;;;2.00;;
18162;SDS011;9206;50.994;4.538;2023-04-15T13:39:22;1.75;;;1.65;;
18162;SDS011;9206;50.994;4.538;2023-04-15T13:42:11;2.60;;;1.95;;
18162;SDS011;9206;50.994;4.538;2023-04-15T13:44:59;2.00;;;1.80;;
18162;SDS011;9206;50.994;4.538;2023-04-15T13:47:48;2.08;;;1.90;;
18162;SDS011;9206;50.994;4.538;2023-04-15T13:50:35;1.95;;;1.65;;
18162;SDS011;9206;50.994;4.538;2023-04-15T13:53:26;1.88;;;1.60;;
18162;SDS011;9206;50.994;4.538;2023-04-15T13:56:21;1.70;;;1.60;;
18162;SDS011;9206;50.994;4.538;2023-04-15T13:59:14;1.73;;;1.63;;
18162;SDS011;9206;50.994;4.538;2023-04-15T14:04:54;1.77;;;1.08;;
18162;SDS011;9206;50.994;4.538;2023-04-15T14:07:43;1.33;;;1.00;;
18162;SDS011;9206;50.994;4.538;2023-04-15T14:10:31;1.00;;;0.88;;
18162;SDS011;9206;50.994;4.538;2023-04-15T14:13:23;1.23;;;1.10;;
18162;SDS011;9206;50.994;4.538;2023-04-15T14:19:01;1.10;;;0.90;;
18162;SDS011;9206;50.994;4.538;2023-04-15T14:21:56;1.30;;;1.23;;
18162;SDS011;9206;50.994;4.538;2023-04-15T14:24:49;1.75;;;1.33;;
18162;SDS011;9206;50.994;4.538;2023-04-15T14:27:44;4.05;;;1.42;;
18162;SDS011;9206;50.994;4.538;2023-04-15T14:30:34;1.55;;;1.42;;
18162;SDS011;9206;50.994;4.538;2023-04-15T14:33:29;2.17;;;1.88;;
18162;SDS011;9206;50.994;4.538;2023-04-15T14:36:17;2.35;;;2.17;;
18162;SDS011;9206;50.994;4.538;2023-04-15T14:39:13;2.20;;;1.70;;
18162;SDS011;9206;50.994;4.538;2023-04-15T14:42:06;3.38;;;1.92;;
18162;SDS011;9206;50.994;4.538;2023-04-15T14:48:04;2.30;;;2.20;;
18162;SDS011;9206;50.994;4.538;2023-04-15T14:50:54;2.83;;;2.10;;
18162;SDS011;9206;50.994;4.538;2023-04-15T14:53:43;2.30;;;2.10;;
18162;SDS011;9206;50.994;4.538;2023-04-15T14:56:38;2.15;;;2.05;;
18162;SDS011;9206;50.994;4.538;2023-04-15T14:59:31;2.90;;;2.70;;
18162;SDS011;9206;50.994;4.538;2023-04-15T15:02:20;2.40;;;2.20;;
18162;SDS011;9206;50.994;4.538;2023-04-15T15:08:04;2.25;;;2.15;;
18162;SDS011;9206;50.994;4.538;2023-04-15T15:10:59;2.58;;;2.38;;
18162;SDS011;9206;50.994;4.538;2023-04-15T15:13:53;2.40;;;2.20;;
18162;SDS011;9206;50.994;4.538;2023-04-15T15:16:45;3.92;;;2.42;;
18162;SDS011;9206;50.994;4.538;2023-04-15T15:19:40;2.30;;;2.20;;
18162;SDS011;9206;50.994;4.538;2023-04-15T15:22:33;4.05;;;2.20;;
18162;SDS011;9206;50.994;4.538;2023-04-15T15:25:20;2.20;;;1.98;;
18162;SDS011;9206;50.994;4.538;2023-04-15T15:28:24;3.55;;;2.35;;
18162;SDS011;9206;50.994;4.538;2023-04-15T15:31:32;3.03;;;2.13;;
18162;SDS011;9206;50.994;4.538;2023-04-15T15:34:23;2.38;;;2.00;;
18162;SDS011;9206;50.994;4.538;2023-04-15T15:37:13;4.70;;;1.92;;
18162;SDS011;9206;50.994;4.538;2023-04-15T15:40:02;2.17;;;1.88;;
18162;SDS011;9206;50.994;4.538;2023-04-15T15:42:53;3.70;;;1.85;;
18162;SDS011;9206;50.994;4.538;2023-04-15T15:45:49;2.13;;;2.03;;
18162;SDS011;9206;50.994;4.538;2023-04-15T15:48:41;1.55;;;1.45;;
18162;SDS011;9206;50.994;4.538;2023-04-15T15:51:28;1.67;;;1.60;;
18162;SDS011;9206;50.994;4.538;2023-04-15T15:54:16;1.80;;;1.63;;
18162;SDS011;9206;50.994;4.538;2023-04-15T15:57:03;1.48;;;1.40;;
18162;SDS011;9206;50.994;4.538;2023-04-15T15:59:52;1.65;;;1.55;;
18162;SDS011;9206;50.994;4.538;2023-04-15T16:02:45;2.40;;;1.55;;
18162;SDS011;9206;50.994;4.538;2023-04-15T16:05:42;2.17;;;1.50;;
18162;SDS011;9206;50.994;4.538;2023-04-15T16:08:36;5.25;;;1.48;;
18162;SDS011;9206;50.994;4.538;2023-04-15T16:11:29;2.90;;;1.35;;
18162;SDS011;9206;50.994;4.538;2023-04-15T16:14:20;1.48;;;1.48;;
18162;SDS011;9206;50.994;4.538;2023-04-15T16:17:16;2.58;;;1.50;;
18162;SDS011;9206;50.994;4.538;2023-04-15T16:20:07;1.60;;;1.50;;
18162;SDS011;9206;50.994;4.538;2023-04-15T16:25:51;2.35;;;1.58;;
18162;SDS011;9206;50.994;4.538;2023-04-15T16:28:40;1.70;;;1.60;;
18162;SDS011;9206;50.994;4.538;2023-04-15T16:31:28;2.45;;;1.55;;
18162;SDS011;9206;50.994;4.538;2023-04-15T16:34:19;2.80;;;1.40;;
18162;SDS011;9206;50.994;4.538;2023-04-15T16:37:08;1.80;;;1.58;;
18162;SDS011;9206;50.994;4.538;2023-04-15T16:39:56;2.53;;;1.95;;
18162;SDS011;9206;50.994;4.538;2023-04-15T16:42:45;2.22;;;1.75;;
18162;SDS011;9206;50.994;4.538;2023-04-15T16:45:33;1.77;;;1.67;;
18162;SDS011;9206;50.994;4.538;2023-04-15T16:48:22;1.80;;;1.40;;
18162;SDS011;9206;50.994;4.538;2023-04-15T16:51:15;1.60;;;1.50;;
18162;SDS011;9206;50.994;4.538;2023-04-15T16:54:08;1.97;;;1.30;;
18162;SDS011;9206;50.994;4.538;2023-04-15T16:56:59;1.50;;;1.40;;
18162;SDS011;9206;50.994;4.538;2023-04-15T16:59:53;3.67;;;1.50;;
18162;SDS011;9206;50.994;4.538;2023-04-15T17:02:44;1.25;;;1.15;;
18162;SDS011;9206;50.994;4.538;2023-04-15T17:05:34;2.53;;;1.30;;
18162;SDS011;9206;50.994;4.538;2023-04-15T17:08:24;3.05;;;1.20;;
18162;SDS011;9206;50.994;4.538;2023-04-15T17:11:17;2.07;;;1.17;;
18162;SDS011;9206;50.994;4.538;2023-04-15T17:14:12;1.40;;;1.30;;
18162;SDS011;9206;50.994;4.538;2023-04-15T17:17:03;2.78;;;1.42;;
18162;SDS011;9206;50.994;4.538;2023-04-15T17:19:58;3.28;;;1.38;;
18162;SDS011;9206;50.994;4.538;2023-04-15T17:22:54;3.17;;;1.40;;
18162;SDS011;9206;50.994;4.538;2023-04-15T17:25:42;2.87;;;1.63;;
18162;SDS011;9206;50.994;4.538;2023-04-15T17:28:43;2.40;;;1.40;;
18162;SDS011;9206;50.994;4.538;2023-04-15T17:31:35;7.07;;;1.60;;
18162;SDS011;9206;50.994;4.538;2023-04-15T17:34:25;3.90;;;2.47;;
18162;SDS011;9206;50.994;4.538;2023-04-15T17:37:13;6.43;;;2.53;;
18162;SDS011;9206;50.994;4.538;2023-04-15T17:40:04;1.77;;;1.63;;
18162;SDS011;9206;50.994;4.538;2023-04-15T17:42:54;3.53;;;1.77;;
18162;SDS011;9206;50.994;4.538;2023-04-15T17:45:44;2.80;;;2.03;;
18162;SDS011;9206;50.994;4.538;2023-04-15T17:48:41;3.80;;;1.83;;
18162;SDS011;9206;50.994;4.538;2023-04-15T17:51:42;3.37;;;1.80;;
18162;SDS011;9206;50.994;4.538;2023-04-15T17:54:34;2.30;;;1.90;;
18162;SDS011;9206;50.994;4.538;2023-04-15T17:57:27;4.27;;;1.80;;
18162;SDS011;9206;50.994;4.538;2023-04-15T18:00:29;3.03;;;2.03;;
18162;SDS011;9206;50.994;4.538;2023-04-15T18:03:25;2.67;;;2.47;;
18162;SDS011;9206;50.994;4.538;2023-04-15T18:06:20;2.33;;;2.20;;
18162;SDS011;9206;50.994;4.538;2023-04-15T18:09:11;3.40;;;2.17;;
18162;SDS011;9206;50.994;4.538;2023-04-15T18:11:58;3.47;;;2.83;;
18162;SDS011;9206;50.994;4.538;2023-04-15T18:14:52;6.60;;;2.13;;
18162;SDS011;9206;50.994;4.538;2023-04-15T18:17:40;3.97;;;2.30;;
18162;SDS011;9206;50.994;4.538;2023-04-15T18:20:27;4.80;;;1.90;;
18162;SDS011;9206;50.994;4.538;2023-04-15T18:23:17;3.33;;;1.90;;
18162;SDS011;9206;50.994;4.538;2023-04-15T18:26:04;3.37;;;2.00;;
18162;SDS011;9206;50.994;4.538;2023-04-15T18:28:51;5.10;;;2.10;;
18162;SDS011;9206;50.994;4.538;2023-04-15T18:31:50;2.60;;;2.20;;
18162;SDS011;9206;50.994;4.538;2023-04-15T18:34:38;6.23;;;2.07;;
18162;SDS011;9206;50.994;4.538;2023-04-15T18:37:33;2.33;;;2.13;;
18162;SDS011;9206;50.994;4.538;2023-04-15T18:40:24;2.33;;;2.13;;
18162;SDS011;9206;50.994;4.538;2023-04-15T18:43:13;5.27;;;2.57;;
18162;SDS011;9206;50.994;4.538;2023-04-15T18:46:03;4.23;;;2.70;;
18162;SDS011;9206;50.994;4.538;2023-04-15T18:49:00;3.90;;;2.73;;
18162;SDS011;9206;50.994;4.538;2023-04-15T18:51:48;5.23;;;2.70;;
18162;SDS011;9206;50.994;4.538;2023-04-15T18:54:35;3.33;;;2.67;;
18162;SDS011;9206;50.994;4.538;2023-04-15T18:57:27;7.27;;;2.63;;
18162;SDS011;9206;50.994;4.538;2023-04-15T19:00:16;3.90;;;2.70;;
18162;SDS011;9206;50.994;4.538;2023-04-15T19:03:04;4.23;;;2.83;;